createdAt,value
2023-01-12T00:01:56.012Z,14.70
2023-01-12T00:04:22.988Z,13.40
2023-01-12T00:06:49.792Z,12.55
2023-01-12T00:09:16.550Z,13.30
2023-01-12T00:11:43.504Z,13.88
2023-01-12T00:14:10.327Z,16.27
2023-01-12T00:16:43.528Z,15.38
2023-01-12T00:19:18.121Z,15.63
2023-01-12T00:21:50.644Z,12.40
2023-01-12T00:24:18.574Z,15.05
2023-01-12T00:26:48.744Z,13.88
2023-01-12T00:29:16.630Z,12.98
2023-01-12T00:31:43.823Z,12.25
2023-01-12T00:34:11.007Z,11.45
2023-01-12T00:36:38.454Z,9.52
2023-01-12T00:39:05.469Z,10.68
2023-01-12T00:41:50.808Z,11.45
2023-01-12T00:44:36.340Z,10.82
2023-01-12T00:47:03.092Z,11.15
2023-01-12T00:49:29.773Z,9.10
2023-01-12T00:51:56.540Z,8.75
2023-01-12T00:54:23.304Z,6.57
2023-01-12T00:56:49.992Z,6.88
2023-01-12T00:59:16.777Z,7.18
2023-01-12T01:01:43.593Z,5.70
2023-01-12T01:04:10.471Z,6.15
2023-01-12T01:06:38.875Z,6.32
2023-01-12T01:09:06.733Z,6.28
2023-01-12T01:11:34.753Z,6.82
2023-01-12T01:14:02.269Z,6.60
2023-01-12T01:16:29.896Z,6.72
2023-01-12T01:18:57.847Z,8.02
2023-01-12T01:21:25.042Z,6.63
2023-01-12T01:23:51.828Z,6.97
2023-01-12T01:26:21.220Z,8.25
2023-01-12T01:28:48.315Z,11.52
2023-01-12T01:31:18.469Z,11.98
2023-01-12T01:33:45.601Z,11.55
2023-01-12T01:36:12.840Z,12.77
2023-01-12T01:38:40.144Z,11.00
2023-01-12T01:41:07.479Z,12.27
2023-01-12T01:43:57.573Z,11.73
2023-01-12T01:47:04.143Z,12.02
2023-01-12T01:49:37.954Z,12.45
2023-01-12T01:52:09.451Z,12.30
2023-01-12T01:54:40.115Z,11.57
2023-01-12T01:57:07.802Z,12.07
2023-01-12T01:59:36.436Z,11.40
2023-01-12T02:02:03.428Z,10.82
2023-01-12T02:04:30.781Z,11.93
2023-01-12T02:06:57.756Z,11.60
2023-01-12T02:09:28.410Z,13.02
2023-01-12T02:12:14.306Z,11.95
2023-01-12T02:15:04.601Z,12.45
2023-01-12T02:17:53.121Z,12.73
2023-01-12T02:20:41.411Z,11.05
2023-01-12T02:23:35.934Z,11.50
2023-01-12T02:26:14.882Z,10.73
2023-01-12T02:29:00.767Z,10.68
2023-01-12T02:31:36.917Z,10.97
2023-01-12T02:34:26.785Z,11.15
2023-01-12T02:37:20.184Z,10.85
2023-01-12T02:40:07.613Z,10.60
2023-01-12T02:42:41.406Z,11.27
2023-01-12T02:45:26.920Z,11.20
2023-01-12T02:48:12.125Z,12.43
2023-01-12T02:50:59.383Z,10.52
2023-01-12T02:53:43.261Z,12.25
2023-01-12T02:56:11.793Z,11.73
2023-01-12T02:58:42.971Z,11.17
2023-01-12T03:01:10.821Z,12.05
2023-01-12T03:03:39.729Z,11.73
2023-01-12T03:06:07.742Z,12.07
2023-01-12T03:08:37.760Z,10.70
2023-01-12T03:11:12.193Z,10.53
2023-01-12T03:13:43.728Z,10.43
2023-01-12T03:16:11.908Z,10.57
2023-01-12T03:18:44.496Z,10.68
2023-01-12T03:21:27.657Z,10.27
2023-01-12T03:24:02.280Z,10.97
2023-01-12T03:26:30.521Z,11.10
2023-01-12T03:29:33.502Z,10.90
2023-01-12T03:32:00.457Z,10.13
2023-01-12T03:34:27.826Z,10.30
2023-01-12T03:37:07.652Z,10.60
2023-01-12T03:39:55.516Z,9.45
2023-01-12T03:42:26.679Z,9.27
2023-01-12T03:45:27.103Z,8.30
2023-01-12T03:47:57.975Z,7.32
2023-01-12T03:50:28.936Z,7.97
2023-01-12T03:52:56.665Z,8.75
2023-01-12T03:55:24.369Z,8.18
2023-01-12T03:57:52.013Z,8.50
2023-01-12T04:00:20.766Z,8.95
2023-01-12T04:02:47.515Z,7.17
2023-01-12T04:05:14.900Z,7.65
2023-01-12T04:07:41.699Z,7.28
2023-01-12T04:10:08.999Z,7.40
2023-01-12T04:12:35.748Z,8.32
2023-01-12T04:15:02.457Z,7.60
2023-01-12T04:17:29.310Z,8.27
2023-01-12T04:19:56.160Z,7.40
2023-01-12T04:22:41.425Z,7.70
2023-01-12T04:25:09.896Z,8.52
2023-01-12T04:27:36.967Z,8.80
2023-01-12T04:30:04.500Z,9.85
2023-01-12T04:32:31.252Z,10.68
2023-01-12T04:34:58.016Z,10.18
2023-01-12T04:37:24.772Z,10.60
2023-01-12T04:39:51.540Z,10.33
2023-01-12T04:42:36.959Z,11.18
2023-01-12T04:45:03.981Z,10.73
2023-01-12T04:47:30.748Z,10.45
2023-01-12T04:49:57.444Z,11.07
2023-01-12T04:52:24.264Z,11.35
2023-01-12T04:54:51.055Z,10.20
2023-01-12T04:57:17.813Z,12.63
2023-01-12T04:59:44.530Z,11.25
2023-01-12T05:02:11.372Z,11.52
2023-01-12T05:04:38.106Z,10.70
2023-01-12T05:07:04.931Z,11.40
2023-01-12T05:09:49.957Z,11.25
2023-01-12T05:12:16.781Z,11.50
2023-01-12T05:14:43.477Z,10.50
2023-01-12T05:17:10.282Z,11.10
2023-01-12T05:19:36.957Z,12.07
2023-01-12T05:22:03.709Z,11.52
2023-01-12T05:24:30.633Z,10.30
2023-01-12T05:26:57.408Z,10.98
2023-01-12T05:29:24.109Z,9.60
2023-01-12T05:31:50.841Z,10.18
2023-01-12T05:34:19.773Z,8.90
2023-01-12T05:36:47.472Z,8.27
2023-01-12T05:39:14.201Z,8.70
2023-01-12T05:42:00.850Z,8.83
2023-01-12T05:44:27.751Z,6.90
2023-01-12T05:46:54.640Z,4.97
2023-01-12T05:49:21.369Z,4.97
2023-01-12T05:51:48.202Z,5.10
2023-01-12T05:54:15.000Z,6.17
2023-01-12T05:56:42.990Z,5.40
2023-01-12T05:59:10.536Z,5.78
2023-01-12T06:01:37.480Z,5.80
2023-01-12T06:04:04.466Z,5.93
2023-01-12T06:06:31.706Z,5.23
2023-01-12T06:08:59.287Z,5.85
2023-01-12T06:11:44.534Z,5.97
2023-01-12T06:14:11.535Z,5.65
2023-01-12T06:16:40.028Z,5.35
2023-01-12T06:19:07.225Z,6.10
2023-01-12T06:21:34.459Z,5.15
2023-01-12T06:24:01.341Z,5.45
2023-01-12T06:26:28.089Z,5.50
2023-01-12T06:28:54.840Z,5.93
2023-01-12T06:31:21.618Z,6.97
2023-01-12T06:33:48.403Z,6.70
2023-01-12T06:36:15.194Z,6.47
2023-01-12T06:38:43.349Z,6.53
2023-01-12T06:41:30.377Z,6.65
2023-01-12T06:43:57.515Z,6.30
2023-01-12T06:46:25.880Z,6.30
2023-01-12T06:48:55.344Z,5.55
2023-01-12T06:51:22.203Z,6.75
2023-01-12T06:53:48.926Z,6.85
2023-01-12T06:56:15.918Z,6.47
2023-01-12T06:58:43.563Z,6.57
2023-01-12T07:01:10.619Z,6.32
2023-01-12T07:03:37.403Z,6.03
2023-01-12T07:06:04.312Z,6.35
2023-01-12T07:08:32.268Z,6.40
2023-01-12T07:11:07.900Z,6.43
2023-01-12T07:13:34.896Z,6.38
2023-01-12T07:16:02.078Z,6.88
2023-01-12T07:18:29.383Z,6.95
2023-01-12T07:20:56.275Z,7.17
2023-01-12T07:23:24.250Z,7.07
2023-01-12T07:25:51.142Z,8.18
2023-01-12T07:28:21.611Z,7.88
2023-01-12T07:30:48.774Z,7.72
2023-01-12T07:33:18.533Z,7.80
2023-01-12T07:35:45.682Z,8.55
2023-01-12T07:38:13.625Z,8.18
2023-01-12T07:40:41.040Z,7.70
2023-01-12T07:43:09.431Z,8.60
2023-01-12T07:45:36.375Z,8.73
2023-01-12T07:48:03.314Z,8.23
2023-01-12T07:50:30.176Z,7.07
2023-01-12T07:53:01.291Z,8.35
2023-01-12T07:55:28.624Z,8.05
2023-01-12T07:58:01.283Z,8.60
2023-01-12T08:00:28.295Z,8.13
2023-01-12T08:02:56.361Z,7.93
2023-01-12T08:05:23.188Z,8.45
2023-01-12T08:07:50.215Z,8.20
2023-01-12T08:10:17.173Z,8.73
2023-01-12T08:12:44.066Z,9.57
2023-01-12T08:15:11.812Z,9.65
2023-01-12T08:17:49.542Z,9.18
2023-01-12T08:20:19.844Z,8.75
2023-01-12T08:22:49.301Z,9.07
2023-01-12T08:25:19.693Z,8.52
2023-01-12T08:27:54.928Z,8.18
2023-01-12T08:30:41.099Z,8.18
2023-01-12T08:33:07.975Z,9.48
2023-01-12T08:35:35.169Z,8.17
2023-01-12T08:38:01.944Z,8.43
2023-01-12T08:40:48.758Z,8.82
2023-01-12T08:43:35.682Z,7.93
2023-01-12T08:46:07.848Z,8.18
2023-01-12T08:48:38.137Z,8.20
2023-01-12T08:51:06.837Z,8.32
2023-01-12T08:53:34.026Z,8.98
2023-01-12T08:56:00.809Z,8.02
2023-01-12T08:58:27.535Z,7.97
2023-01-12T09:00:54.411Z,8.60
2023-01-12T09:03:21.335Z,8.30
2023-01-12T09:05:48.756Z,8.10
2023-01-12T09:08:15.600Z,9.05
2023-01-12T09:10:42.364Z,9.50
2023-01-12T09:13:11.811Z,8.83
2023-01-12T09:15:38.641Z,7.47
2023-01-12T09:18:06.573Z,8.07
2023-01-12T09:20:34.267Z,8.75
2023-01-12T09:23:03.964Z,8.68
2023-01-12T09:25:30.650Z,8.73
2023-01-12T09:27:58.012Z,8.95
2023-01-12T09:30:24.779Z,7.97
2023-01-12T09:32:51.493Z,8.30
2023-01-12T09:35:19.894Z,7.68
2023-01-12T09:37:46.755Z,7.90
2023-01-12T09:40:15.195Z,7.82
2023-01-12T09:43:06.664Z,6.97
2023-01-12T09:45:51.910Z,7.25
2023-01-12T09:48:21.240Z,7.38
2023-01-12T09:50:54.471Z,8.47
2023-01-12T09:53:41.475Z,8.43
2023-01-12T09:56:08.310Z,8.38
2023-01-12T09:59:12.399Z,8.75
2023-01-12T10:01:39.226Z,8.45
2023-01-12T10:04:06.783Z,8.23
2023-01-12T10:06:35.021Z,9.15
2023-01-12T10:09:07.125Z,8.68
2023-01-12T10:12:01.044Z,8.77
2023-01-12T10:14:41.857Z,8.57
2023-01-12T10:17:14.380Z,8.20
2023-01-12T10:20:08.888Z,8.65
2023-01-12T10:22:44.816Z,8.35
2023-01-12T10:25:23.935Z,8.82
2023-01-12T10:27:53.072Z,8.25
2023-01-12T10:30:31.892Z,8.70
2023-01-12T10:33:16.292Z,8.68
2023-01-12T10:35:54.347Z,8.32
2023-01-12T10:38:28.552Z,8.55
2023-01-12T10:41:28.332Z,8.80
2023-01-12T10:43:55.097Z,10.13
2023-01-12T10:46:24.122Z,9.82
2023-01-12T10:48:54.936Z,9.23
2023-01-12T10:51:35.722Z,9.40
2023-01-12T10:54:18.980Z,9.13
2023-01-12T10:57:16.709Z,9.83
2023-01-12T10:59:50.661Z,9.60
2023-01-12T11:02:17.753Z,10.15
2023-01-12T11:04:51.687Z,9.90
2023-01-12T11:07:31.203Z,9.93
2023-01-12T11:10:28.508Z,9.67
2023-01-12T11:12:58.945Z,10.32
2023-01-12T11:15:27.230Z,9.70
2023-01-12T11:18:21.488Z,9.98
2023-01-12T11:20:51.838Z,9.23
2023-01-12T11:23:39.406Z,8.37
2023-01-12T11:26:17.880Z,9.40
2023-01-12T11:28:50.020Z,8.70
2023-01-12T11:31:21.231Z,8.88
2023-01-12T11:34:04.017Z,9.23
2023-01-12T11:36:34.907Z,9.70
2023-01-12T11:39:27.785Z,9.60
2023-01-12T11:42:20.233Z,9.45
2023-01-12T11:44:52.129Z,8.88
2023-01-12T11:47:24.436Z,10.40
2023-01-12T11:50:24.741Z,10.67
2023-01-12T11:52:52.082Z,11.02
2023-01-12T11:55:48.871Z,10.95
2023-01-12T11:58:22.488Z,11.38
2023-01-12T12:01:11.510Z,11.10
2023-01-12T12:03:40.048Z,9.60
2023-01-12T12:06:10.895Z,9.50
2023-01-12T12:08:49.773Z,8.65
2023-01-12T12:11:57.040Z,8.88
2023-01-12T12:14:48.338Z,8.80
2023-01-12T12:17:15.024Z,9.63
2023-01-12T12:19:41.887Z,8.80
2023-01-12T12:22:19.452Z,9.15
2023-01-12T12:25:01.369Z,9.40
2023-01-12T12:27:52.260Z,9.00
2023-01-12T12:30:41.091Z,9.33
2023-01-12T12:33:22.406Z,9.32
2023-01-12T12:36:04.513Z,9.15
2023-01-12T12:39:01.361Z,8.40
2023-01-12T12:41:55.958Z,8.88
2023-01-12T12:44:48.059Z,8.60
2023-01-12T12:47:42.776Z,9.02
2023-01-12T12:50:19.735Z,8.23
2023-01-12T12:52:51.585Z,8.73
2023-01-12T12:55:18.539Z,8.85
2023-01-12T12:58:01.686Z,9.37
2023-01-12T13:00:42.531Z,9.10
2023-01-12T13:03:10.287Z,9.82
2023-01-12T13:05:41.363Z,9.88
2023-01-12T13:08:25.810Z,10.38
2023-01-12T13:10:57.752Z,10.10
2023-01-12T13:13:28.382Z,10.38
2023-01-12T13:16:15.516Z,10.30
2023-01-12T13:19:02.251Z,9.77
2023-01-12T13:21:58.509Z,9.63
2023-01-12T13:24:39.626Z,9.03
2023-01-12T13:27:43.682Z,9.15
2023-01-12T13:30:34.897Z,10.27
2023-01-12T13:33:27.398Z,8.85
2023-01-12T13:35:55.244Z,9.15
2023-01-12T13:38:38.942Z,9.73
2023-01-12T13:41:37.675Z,9.15
2023-01-12T13:44:06.531Z,10.38
2023-01-12T13:46:55.729Z,10.02
2023-01-12T13:49:26.288Z,10.60
2023-01-12T13:52:22.135Z,10.13
2023-01-12T13:54:50.526Z,9.60
2023-01-12T13:57:22.529Z,10.23
2023-01-12T13:59:59.432Z,10.65
2023-01-12T14:02:32.237Z,10.13
2023-01-12T14:05:13.894Z,9.77
2023-01-12T14:07:52.945Z,10.50
2023-01-12T14:10:28.477Z,9.90
2023-01-12T14:13:25.845Z,9.70
2023-01-12T14:16:19.284Z,9.65
2023-01-12T14:18:51.138Z,9.13
2023-01-12T14:21:28.974Z,10.25
2023-01-12T14:24:21.151Z,10.25
2023-01-12T14:26:47.901Z,10.90
2023-01-12T14:29:14.814Z,10.77
2023-01-12T14:31:48.337Z,10.97
2023-01-12T14:34:28.073Z,10.75
2023-01-12T14:36:55.189Z,10.30
2023-01-12T14:39:25.019Z,10.75
2023-01-12T14:42:12.601Z,10.18
2023-01-12T14:45:09.050Z,12.00
2023-01-12T14:47:36.318Z,12.68
2023-01-12T14:50:12.304Z,11.77
2023-01-12T14:52:40.898Z,10.63
2023-01-12T14:55:38.948Z,9.57
2023-01-12T14:58:06.463Z,9.47
2023-01-12T15:00:35.637Z,9.18
2023-01-12T15:03:07.676Z,9.10
2023-01-12T15:05:36.787Z,9.13
2023-01-12T15:08:22.123Z,10.13
2023-01-12T15:11:06.580Z,11.33
2023-01-12T15:13:35.044Z,11.25
2023-01-12T15:16:21.611Z,11.57
2023-01-12T15:19:07.132Z,13.05
2023-01-12T15:21:53.513Z,11.70
2023-01-12T15:24:49.648Z,11.30
2023-01-12T15:27:19.204Z,11.88
2023-01-12T15:29:46.242Z,11.48
2023-01-12T15:32:21.896Z,11.75
2023-01-12T15:34:48.985Z,10.48
2023-01-12T15:37:18.345Z,10.00
2023-01-12T15:39:45.839Z,8.52
2023-01-12T15:42:21.949Z,8.93
2023-01-12T15:44:50.779Z,9.23
2023-01-12T15:47:18.827Z,10.80
2023-01-12T15:49:48.701Z,13.17
2023-01-12T15:52:18.451Z,14.68
2023-01-12T15:54:45.278Z,15.25
2023-01-12T15:57:13.664Z,15.63
2023-01-12T15:59:40.706Z,19.35
2023-01-12T16:02:29.973Z,19.03
2023-01-12T16:04:56.713Z,21.00
2023-01-12T16:07:23.469Z,22.90
2023-01-12T16:09:50.735Z,23.20
2023-01-12T16:12:18.207Z,21.90
2023-01-12T16:14:45.079Z,21.60
2023-01-12T16:17:11.833Z,22.73
2023-01-12T16:19:41.619Z,23.40
2023-01-12T16:22:28.640Z,20.20
2023-01-12T16:24:56.644Z,17.92
2023-01-12T16:27:26.782Z,15.27
2023-01-12T16:29:54.062Z,16.73
2023-01-12T16:32:25.776Z,18.63
2023-01-12T16:34:53.173Z,18.52
2023-01-12T16:37:23.014Z,18.42
2023-01-12T16:39:50.008Z,16.33
2023-01-12T16:42:16.806Z,16.00
2023-01-12T16:44:43.538Z,16.08
2023-01-12T16:47:12.913Z,16.45
2023-01-12T16:49:39.980Z,15.60
2023-01-12T16:52:07.966Z,11.07
2023-01-12T16:54:38.579Z,14.63
2023-01-12T16:57:05.387Z,13.98
2023-01-12T16:59:32.188Z,13.63
2023-01-12T17:01:59.149Z,16.02
2023-01-12T17:04:26.581Z,14.77
2023-01-12T17:06:53.506Z,15.68
2023-01-12T17:09:20.881Z,16.60
2023-01-12T17:11:49.777Z,14.43
2023-01-12T17:14:26.958Z,13.13
2023-01-12T17:16:58.857Z,13.77
2023-01-12T17:19:27.479Z,15.95
2023-01-12T17:21:55.077Z,16.27
2023-01-12T17:24:22.344Z,15.93
2023-01-12T17:26:51.364Z,15.68
2023-01-12T17:29:18.869Z,16.73
2023-01-12T17:31:45.768Z,16.65
2023-01-12T17:34:13.626Z,18.60
2023-01-12T17:36:40.767Z,14.48
2023-01-12T17:39:08.280Z,16.27
2023-01-12T17:41:54.089Z,14.57
2023-01-12T17:44:21.399Z,15.13
2023-01-12T17:46:48.336Z,14.20
2023-01-12T17:49:15.491Z,11.55
2023-01-12T17:51:42.319Z,10.07
2023-01-12T17:54:11.558Z,8.67
2023-01-12T17:56:38.408Z,7.82
2023-01-12T17:59:06.006Z,6.50
2023-01-12T18:01:35.176Z,9.25
2023-01-12T18:04:02.546Z,9.68
2023-01-12T18:06:29.440Z,9.50
2023-01-12T18:08:57.101Z,8.65
2023-01-12T18:11:23.936Z,8.25
2023-01-12T18:13:50.807Z,9.13
2023-01-12T18:16:17.625Z,11.95
2023-01-12T18:18:44.935Z,14.13
2023-01-12T18:21:14.704Z,15.00
2023-01-12T18:23:43.442Z,16.77
2023-01-12T18:26:12.966Z,14.82
2023-01-12T18:28:39.898Z,13.05
2023-01-12T18:31:09.676Z,24.20
2023-01-12T18:33:37.189Z,26.30
2023-01-12T18:36:10.826Z,20.77
2023-01-12T18:38:41.540Z,15.63
2023-01-12T18:41:27.167Z,15.60
2023-01-12T18:43:54.357Z,14.20
2023-01-12T18:46:21.369Z,15.95
2023-01-12T18:48:48.371Z,15.43
2023-01-12T18:51:33.948Z,15.90
2023-01-12T18:54:01.221Z,14.88
2023-01-12T18:56:28.261Z,14.10
2023-01-12T18:58:55.006Z,16.52
2023-01-12T19:01:26.693Z,15.48
2023-01-12T19:03:53.561Z,12.98
2023-01-12T19:06:44.295Z,17.02
2023-01-12T19:09:32.608Z,22.00
2023-01-12T19:11:59.557Z,21.65
2023-01-12T19:14:44.692Z,20.17
2023-01-12T19:17:27.135Z,14.90
2023-01-12T19:19:54.538Z,16.65
2023-01-12T19:22:39.957Z,12.80
2023-01-12T19:25:25.321Z,11.32
2023-01-12T19:28:11.309Z,12.30
2023-01-12T19:30:38.725Z,9.25
2023-01-12T19:33:08.746Z,7.32
2023-01-12T19:35:37.102Z,7.17
2023-01-12T19:38:04.045Z,7.18
2023-01-12T19:40:43.890Z,5.72
2023-01-12T19:43:20.493Z,6.32
2023-01-12T19:45:51.974Z,6.68
2023-01-12T19:48:20.332Z,6.70
2023-01-12T19:50:47.179Z,7.65
2023-01-12T19:53:18.506Z,6.55
2023-01-12T19:55:46.354Z,7.07
2023-01-12T19:58:14.336Z,6.30
2023-01-12T20:00:46.260Z,6.87
2023-01-12T20:03:18.371Z,6.35
2023-01-12T20:05:50.937Z,10.00
2023-01-12T20:08:21.723Z,9.50
2023-01-12T20:10:56.486Z,8.05
2023-01-12T20:13:23.873Z,6.87
2023-01-12T20:15:50.800Z,8.65
2023-01-12T20:18:18.693Z,9.15
2023-01-12T20:20:46.388Z,9.55
2023-01-12T20:23:19.940Z,9.77
2023-01-12T20:25:46.807Z,10.87
2023-01-12T20:28:13.863Z,10.88
2023-01-12T20:30:44.441Z,10.93
2023-01-12T20:33:11.876Z,10.75
2023-01-12T20:35:43.873Z,9.75
2023-01-12T20:38:15.541Z,9.02
2023-01-12T20:40:43.912Z,10.85
2023-01-12T20:43:10.733Z,12.10
2023-01-12T20:45:37.475Z,11.23
2023-01-12T20:48:04.578Z,10.88
2023-01-12T20:50:31.612Z,11.27
2023-01-12T20:52:58.453Z,10.80
2023-01-12T20:55:25.457Z,10.80
2023-01-12T20:57:52.793Z,11.07
2023-01-12T21:00:19.904Z,11.90
2023-01-12T21:02:46.634Z,12.75
2023-01-12T21:05:13.411Z,12.60
2023-01-12T21:07:40.172Z,12.77
2023-01-12T21:10:09.065Z,10.77
2023-01-12T21:12:35.901Z,9.60
2023-01-12T21:15:03.966Z,8.43
2023-01-12T21:17:31.655Z,9.65
2023-01-12T21:19:58.454Z,8.60
2023-01-12T21:22:25.340Z,8.55
2023-01-12T21:24:52.335Z,7.40
2023-01-12T21:27:19.070Z,8.33
2023-01-12T21:29:46.055Z,6.68
2023-01-12T21:32:13.015Z,5.95
2023-01-12T21:34:39.799Z,5.60
2023-01-12T21:37:07.642Z,5.90
2023-01-12T21:39:34.375Z,4.83
2023-01-12T21:42:19.753Z,6.03
2023-01-12T21:44:46.546Z,8.70
2023-01-12T21:47:13.294Z,6.70
2023-01-12T21:49:39.967Z,5.35
2023-01-12T21:52:06.769Z,4.57
2023-01-12T21:54:33.449Z,4.82
2023-01-12T21:57:00.258Z,8.48
2023-01-12T21:59:27.044Z,7.50
2023-01-12T22:01:53.961Z,7.22
2023-01-12T22:04:20.900Z,7.28
2023-01-12T22:06:50.598Z,6.85
2023-01-12T22:09:17.551Z,6.65
2023-01-12T22:11:44.357Z,4.97
2023-01-12T22:14:11.084Z,5.43
2023-01-12T22:16:37.821Z,5.63
2023-01-12T22:19:04.577Z,5.90
2023-01-12T22:21:31.302Z,6.53
2023-01-12T22:23:58.022Z,5.93
2023-01-12T22:26:25.917Z,5.47
2023-01-12T22:28:52.608Z,5.17
2023-01-12T22:31:21.790Z,5.00
2023-01-12T22:33:57.535Z,5.05
2023-01-12T22:36:24.665Z,4.72
2023-01-12T22:38:51.532Z,5.43
2023-01-12T22:41:21.723Z,5.60
2023-01-12T22:43:49.375Z,5.25
2023-01-12T22:46:17.991Z,5.22
2023-01-12T22:48:51.159Z,5.22
2023-01-12T22:51:20.241Z,5.45
2023-01-12T22:53:47.629Z,5.10
2023-01-12T22:56:14.758Z,5.60
2023-01-12T22:58:49.088Z,5.97
2023-01-12T23:01:16.806Z,7.78
2023-01-12T23:03:44.104Z,7.93
2023-01-12T23:06:12.458Z,8.50
2023-01-12T23:08:39.558Z,7.72
2023-01-12T23:11:15.367Z,6.75
2023-01-12T23:13:43.190Z,6.97
2023-01-12T23:16:11.264Z,8.80
2023-01-12T23:18:39.962Z,8.37
2023-01-12T23:21:16.613Z,8.90
2023-01-12T23:23:51.886Z,7.30
2023-01-12T23:26:24.307Z,6.72
2023-01-12T23:28:56.450Z,6.88
2023-01-12T23:31:26.204Z,7.90
2023-01-12T23:33:53.357Z,7.25
2023-01-12T23:36:22.218Z,7.85
2023-01-12T23:38:57.621Z,8.45
2023-01-12T23:41:26.639Z,7.95
2023-01-12T23:43:56.220Z,8.02
2023-01-12T23:46:23.900Z,8.25
2023-01-12T23:48:51.834Z,7.30
2023-01-12T23:51:18.796Z,7.45
2023-01-12T23:53:45.597Z,7.82
2023-01-12T23:56:14.791Z,7.63
2023-01-12T23:58:42.534Z,7.28
